createdAt,value
2023-01-10T00:00:26.819Z,31.31
2023-01-10T00:01:26.691Z,31.31
2023-01-10T00:02:26.725Z,31.30
2023-01-10T00:03:26.692Z,31.31
2023-01-10T00:04:26.771Z,31.30
2023-01-10T00:05:26.653Z,31.29
2023-01-10T07:07:36.074Z,32.65
2023-01-10T08:02:34.589Z,33.42
2023-01-10T08:03:34.568Z,33.46
2023-01-10T08:04:34.371Z,33.48
2023-01-10T08:05:34.365Z,33.65
2023-01-10T08:06:34.356Z,33.68
2023-01-10T08:09:34.334Z,33.99
2023-01-10T08:11:34.315Z,34.10
2023-01-10T08:12:34.289Z,34.48
2023-01-10T08:13:34.316Z,34.33
2023-01-10T08:14:34.361Z,34.53
2023-01-10T08:15:34.270Z,34.75
2023-01-10T08:16:34.275Z,34.79
2023-01-10T08:17:34.254Z,34.97
2023-01-10T08:19:34.227Z,34.98
2023-01-10T08:20:34.221Z,35.19
2023-01-10T08:22:34.547Z,35.44
2023-01-10T08:23:34.309Z,35.49
2023-01-10T08:24:34.195Z,35.77
2023-01-10T08:25:34.190Z,35.73
2023-01-10T08:27:34.161Z,35.84
2023-01-10T08:28:34.155Z,35.91
2023-01-10T08:29:34.151Z,36.17
2023-01-10T08:30:34.147Z,36.32
2023-01-10T08:32:34.125Z,36.47
2023-01-10T08:33:34.135Z,36.65
2023-01-10T08:34:34.137Z,36.65
2023-01-10T08:35:34.084Z,36.29
2023-01-10T08:37:34.072Z,35.55
2023-01-10T08:38:34.090Z,35.72
2023-01-10T08:40:34.048Z,35.89
2023-01-10T08:41:34.042Z,36.18
2023-01-10T08:42:34.033Z,36.07
2023-01-10T08:43:34.043Z,36.09
2023-01-10T08:45:34.062Z,36.24
2023-01-10T08:48:33.969Z,36.29
2023-01-10T08:49:33.970Z,36.35
2023-01-10T08:50:33.966Z,36.32
2023-01-10T08:51:34.151Z,36.21
2023-01-10T08:52:33.936Z,36.30
2023-01-10T08:53:33.937Z,36.30
2023-01-10T08:54:33.917Z,36.50
2023-01-10T08:55:33.935Z,36.23
2023-01-10T08:56:34.131Z,33.38
2023-01-10T08:57:33.899Z,32.50
2023-01-10T08:58:33.921Z,31.79
2023-01-10T09:00:33.867Z,30.92
2023-01-10T09:01:34.315Z,31.05
2023-01-10T09:03:34.319Z,32.95
2023-01-10T09:05:33.846Z,33.71
2023-01-10T09:06:34.147Z,33.70
2023-01-10T09:07:33.889Z,33.92
2023-01-10T09:08:34.150Z,34.03
2023-01-10T09:09:34.179Z,33.94
2023-01-10T09:11:33.884Z,34.20
2023-01-10T09:17:34.131Z,34.84
2023-01-10T10:07:35.367Z,34.56
2023-01-10T10:27:34.230Z,36.04
2023-01-10T10:29:36.522Z,34.44
2023-01-10T10:49:33.872Z,33.07
2023-01-10T15:16:30.379Z,35.58
2023-01-10T18:42:28.440Z,32.24
2023-01-10T18:43:28.430Z,32.20
2023-01-10T18:44:28.437Z,32.17
2023-01-10T18:45:28.416Z,32.19
2023-01-10T18:46:28.603Z,32.18
2023-01-10T18:47:28.424Z,32.19
2023-01-10T18:48:28.394Z,32.18
2023-01-10T18:49:28.386Z,32.16
2023-01-10T18:50:28.367Z,32.14
2023-01-10T18:51:28.357Z,32.15
2023-01-10T18:52:28.348Z,32.17
2023-01-10T18:53:28.337Z,32.12
2023-01-10T18:54:28.345Z,32.14
2023-01-10T18:55:28.331Z,32.12
2023-01-10T18:56:28.310Z,32.06
2023-01-10T18:57:28.303Z,32.13
2023-01-10T18:58:28.304Z,32.12
2023-01-10T18:59:28.282Z,32.09
2023-01-10T19:00:28.273Z,32.12
2023-01-10T19:01:28.298Z,32.10
2023-01-10T19:02:28.293Z,32.10
2023-01-10T19:03:28.269Z,32.07
2023-01-10T19:04:28.235Z,32.06
2023-01-10T19:05:28.225Z,32.07
2023-01-10T19:06:28.219Z,32.08
2023-01-10T19:07:28.225Z,32.06
2023-01-10T19:08:28.202Z,32.05
2023-01-10T19:09:28.381Z,32.06
2023-01-10T19:10:29.043Z,32.02
2023-01-10T19:11:28.176Z,32.05
2023-01-10T19:12:28.158Z,32.04
2023-01-10T19:27:28.393Z,31.92
2023-01-10T19:41:28.885Z,31.82
2023-01-10T19:53:28.393Z,31.75
